Emporia, KS (66801)

3:41 PM CDT on September 19, 2017 (GMT -0500)
Northwest Emporia | | Change Station

Elev 1161 ft 38.43 °N, 96.22 °W | Updated 47 seconds ago

Clear
Clear
91.9 °F
Feels Like 95 °F
N
9.2
Wind Variable Wind from SE
Gusts 12.1 mph

Today
High -- | Low -- °F
--% Chance of Precip.
Yesterday
High -- | Low -- °F
Precip. -- in
Pressure 29.68 in
Visibility 10.0 miles
Clouds Clear
Heat Index 95 °F
Dew Point 67 °F
Humidity 44%
Rainfall 0.00 in
Snow Depth Not available.
7:10 AM 7:25 PM
Waning Crescent, 0% visible
METAR KEMP 191953Z AUTO 17021G29KT 10SM CLR 32/21 A2971 RMK AO2 PK WND 15032/1905 SLP048 T03220211
Pressure 29.68 in
Visibility 10.0 miles
Clouds Clear
Heat Index 95 °F
Dew Point 67 °F
Humidity 44%
Rainfall 0.00 in
Snow Depth Not available.
7:10 AM 7:25 PM
Waning Crescent, 0% visible
METAR KEMP 191953Z AUTO 17021G29KT 10SM CLR 32/21 A2971 RMK AO2 PK WND 15032/1905 SLP048 T03220211

Get Severe Weather Alerts

Thanks for signing up!

Be on the lookout for a verification email in your inbox.

You'll start receiving the daily forecast at 6 AM.

×

10-Day Weather Forecast

Almanac

Astronomy

Sep. 19, 2017 Rise Set
Actual Time
Civil Twilight
Nautical Twilight
Astronomical Twilight
Moon
Length of Visible Light
Length of Day
Tomorrow will be .
, % of the Moon is Illuminated

Today's Extremes

State Highs State Lows

Community

WunderPhotos

Category 6

Welcome to Category 6. This is the collective home for Weather Underground's featured writeups by Dr. Jeff Masters (right), Bob Henson (left), Chris Burt, and other regular contributors.

Nearby

Air Quality

  Air Quality AQ Index Pollutant
Not available.

Snow Depth

Station Depth Elevation

Earthquake Activity

City Distance Mag. Time & Date
Minimum magnitude displayed is 2.5.

Coastal Water Temperatures

Place Temperature

Stations

Nearby Weather Stations

Station Location Temp. Windchill Dew Point Humidity Wind Precip. Elev Updated Type
                   

Watches & Warnings

There are currently no watches in effect.